createdAt,value
2019-03-23T00:00:25.641Z,73.47
2019-03-23T00:02:32.662Z,82.30
2019-03-23T00:04:36.498Z,77.67
2019-03-23T00:06:40.308Z,81.95
2019-03-23T00:08:44.247Z,78.60
2019-03-23T00:10:48.088Z,79.60
2019-03-23T00:12:51.918Z,79.00
2019-03-23T00:14:55.882Z,80.28
2019-03-23T00:16:59.702Z,83.92
2019-03-23T00:19:03.586Z,81.32
2019-03-23T00:21:07.454Z,79.05
2019-03-23T00:23:11.446Z,87.70
2019-03-23T00:25:15.331Z,80.67
2019-03-23T00:27:19.201Z,79.55
2019-03-23T00:29:23.074Z,77.25
2019-03-23T00:31:26.899Z,81.42
2019-03-23T00:33:30.841Z,81.37
2019-03-23T00:35:34.639Z,79.65
2019-03-23T00:37:38.556Z,80.20
2019-03-23T00:39:42.408Z,78.75
2019-03-23T00:41:46.319Z,80.97
2019-03-23T00:43:50.373Z,79.07
2019-03-23T00:45:54.295Z,78.57
2019-03-23T00:47:58.228Z,78.37
2019-03-23T00:50:02.065Z,78.40
2019-03-23T00:52:05.950Z,78.30
2019-03-23T00:54:09.875Z,78.65
2019-03-23T00:56:13.698Z,79.32
2019-03-23T00:58:17.675Z,80.03
2019-03-23T01:00:21.566Z,81.87
2019-03-23T01:02:25.417Z,78.78
2019-03-23T01:04:29.347Z,77.82
2019-03-23T01:06:33.248Z,73.22
2019-03-23T01:08:37.054Z,78.25
2019-03-23T01:10:40.906Z,74.95
2019-03-23T01:12:44.787Z,71.67
2019-03-23T01:14:48.631Z,75.90
2019-03-23T01:16:52.575Z,75.32
2019-03-23T01:18:56.380Z,70.75
2019-03-23T01:21:00.253Z,72.20
2019-03-23T01:23:04.221Z,76.15
2019-03-23T01:25:10.269Z,74.07
2019-03-23T01:27:14.144Z,76.40
2019-03-23T01:29:18.070Z,76.37
2019-03-23T01:31:21.882Z,82.33
2019-03-23T01:33:25.765Z,80.00
2019-03-23T01:35:29.604Z,79.32
2019-03-23T01:37:33.484Z,84.55
2019-03-23T01:39:37.313Z,82.62
2019-03-23T01:41:41.262Z,76.47
2019-03-23T01:43:45.190Z,77.50
2019-03-23T01:45:49.020Z,77.95
2019-03-23T01:47:52.890Z,80.97
2019-03-23T01:49:56.814Z,78.15
2019-03-23T01:52:00.683Z,77.37
2019-03-23T01:54:04.646Z,76.40
2019-03-23T01:56:08.581Z,81.22
2019-03-23T01:58:12.485Z,74.87
2019-03-23T02:02:42.495Z,75.62
2019-03-23T02:04:46.363Z,78.90
2019-03-23T02:06:50.243Z,78.60
2019-03-23T02:08:54.155Z,80.25
2019-03-23T02:10:58.032Z,80.20
2019-03-23T02:13:01.890Z,76.22
2019-03-23T02:15:08.151Z,77.10
2019-03-23T02:17:11.982Z,74.77
2019-03-23T02:19:15.895Z,84.87
2019-03-23T02:21:19.789Z,83.00
2019-03-23T02:23:23.603Z,72.45
2019-03-23T02:25:27.456Z,73.05
2019-03-23T02:27:31.683Z,78.87
2019-03-23T02:29:35.525Z,74.03
2019-03-23T02:31:39.381Z,72.53
2019-03-23T02:33:43.327Z,73.87
2019-03-23T02:35:47.221Z,78.67
2019-03-23T02:37:51.032Z,72.87
2019-03-23T02:39:54.901Z,67.32
2019-03-23T02:41:58.791Z,68.65
2019-03-23T02:44:02.666Z,69.35
2019-03-23T02:46:06.574Z,70.67
2019-03-23T02:48:10.463Z,72.00
2019-03-23T02:50:14.410Z,68.28
2019-03-23T02:52:18.290Z,67.17
2019-03-23T02:54:22.192Z,71.92
2019-03-23T02:56:26.025Z,64.97
2019-03-23T02:58:29.927Z,68.17
2019-03-23T03:00:33.728Z,67.32
2019-03-23T03:02:37.621Z,67.92
2019-03-23T03:04:41.576Z,67.90
2019-03-23T03:06:45.770Z,66.40
2019-03-23T03:08:49.611Z,68.00
2019-03-23T03:10:53.484Z,63.20
2019-03-23T03:12:57.366Z,66.15
2019-03-23T03:15:01.164Z,75.32
2019-03-23T03:17:05.104Z,71.22
2019-03-23T03:19:08.967Z,71.33
2019-03-23T03:21:12.770Z,66.10
2019-03-23T03:23:16.710Z,66.00
2019-03-23T03:25:20.619Z,69.67
2019-03-23T03:27:24.443Z,70.65
2019-03-23T03:29:28.394Z,76.35
2019-03-23T03:31:32.226Z,66.25
2019-03-23T03:33:36.076Z,67.47
2019-03-23T03:35:39.928Z,65.95
2019-03-23T03:37:55.783Z,66.25
2019-03-23T03:39:49.348Z,64.95
2019-03-23T03:41:53.230Z,70.10
2019-03-23T03:43:57.059Z,68.75
2019-03-23T03:46:01.020Z,64.25
2019-03-23T03:48:05.021Z,67.30
2019-03-23T03:50:09.463Z,68.92
2019-03-23T03:52:13.670Z,68.35
2019-03-23T03:54:17.547Z,65.37
2019-03-23T03:56:21.454Z,60.52
2019-03-23T03:58:25.398Z,62.15
2019-03-23T04:00:29.311Z,62.93
2019-03-23T04:02:33.195Z,60.60
2019-03-23T04:04:37.087Z,64.97
2019-03-23T04:06:41.141Z,67.50
2019-03-23T04:08:45.027Z,65.67
2019-03-23T04:10:48.861Z,65.35
2019-03-23T04:12:52.818Z,66.15
2019-03-23T04:14:56.687Z,61.90
2019-03-23T04:17:00.585Z,61.92
2019-03-23T04:19:04.485Z,69.07
2019-03-23T04:21:08.323Z,62.45
2019-03-23T04:23:12.134Z,61.55
2019-03-23T04:25:16.099Z,63.55
2019-03-23T04:27:20.022Z,60.75
2019-03-23T04:29:23.891Z,66.15
2019-03-23T04:31:27.767Z,62.98
2019-03-23T04:33:31.644Z,64.85
2019-03-23T04:35:35.493Z,66.22
2019-03-23T04:37:39.430Z,60.50
2019-03-23T04:39:43.303Z,68.97
2019-03-23T04:41:47.193Z,61.77
2019-03-23T04:43:51.038Z,62.73
2019-03-23T04:45:54.906Z,59.40
2019-03-23T04:47:58.828Z,61.85
2019-03-23T04:50:02.691Z,61.75
2019-03-23T04:52:06.544Z,66.35
2019-03-23T04:54:10.431Z,62.88
2019-03-23T04:56:14.385Z,63.60
2019-03-23T04:58:18.221Z,62.90
2019-03-23T05:00:22.076Z,66.12
2019-03-23T05:02:25.968Z,65.42
2019-03-23T05:04:29.810Z,64.58
2019-03-23T05:06:33.684Z,65.90
2019-03-23T05:08:37.603Z,65.50
2019-03-23T05:10:41.514Z,63.70
2019-03-23T05:12:45.377Z,66.97
2019-03-23T05:14:49.312Z,61.80
2019-03-23T05:16:53.150Z,60.60
2019-03-23T05:18:56.997Z,62.05
2019-03-23T05:21:00.889Z,64.05
2019-03-23T05:23:04.754Z,65.20
2019-03-23T05:25:11.607Z,64.60
2019-03-23T05:27:15.506Z,61.02
2019-03-23T05:29:19.383Z,62.35
2019-03-23T05:31:23.263Z,65.22
2019-03-23T05:33:27.563Z,65.42
2019-03-23T05:35:31.414Z,62.03
2019-03-23T05:37:35.217Z,62.05
2019-03-23T05:39:39.174Z,62.33
2019-03-23T05:41:43.001Z,60.52
2019-03-23T05:43:46.963Z,59.35
2019-03-23T05:45:50.832Z,59.27
2019-03-23T05:47:54.751Z,61.23
2019-03-23T05:49:58.636Z,60.17
2019-03-23T05:52:02.514Z,60.83
2019-03-23T05:54:06.378Z,64.12
2019-03-23T05:56:10.260Z,62.25
2019-03-23T05:58:14.113Z,64.07
2019-03-23T06:00:19.020Z,63.92
2019-03-23T06:02:22.848Z,65.85
2019-03-23T06:04:26.731Z,63.45
2019-03-23T06:06:30.623Z,75.55
2019-03-23T06:08:34.468Z,68.60
2019-03-23T06:10:38.407Z,69.35
2019-03-23T06:12:42.219Z,68.87
2019-03-23T06:14:46.168Z,68.85
2019-03-23T06:16:50.041Z,69.15
2019-03-23T06:18:53.890Z,64.45
2019-03-23T06:20:57.803Z,72.90
2019-03-23T06:23:01.657Z,69.40
2019-03-23T06:25:06.910Z,75.62
2019-03-23T06:27:10.799Z,67.40
2019-03-23T06:29:14.747Z,70.85
2019-03-23T06:31:18.560Z,71.05
2019-03-23T06:33:22.439Z,71.15
2019-03-23T06:35:26.280Z,73.12
2019-03-23T06:37:30.164Z,72.05
2019-03-23T06:39:34.029Z,73.07
2019-03-23T06:41:37.939Z,75.65
2019-03-23T06:43:41.906Z,75.40
2019-03-23T06:45:45.840Z,74.40
2019-03-23T06:47:49.665Z,78.17
2019-03-23T06:49:53.506Z,72.95
2019-03-23T06:51:57.394Z,75.25
2019-03-23T06:54:01.277Z,77.80
2019-03-23T06:56:05.149Z,74.27
2019-03-23T06:58:09.012Z,75.35
2019-03-23T07:00:15.153Z,74.90
2019-03-23T07:02:19.029Z,77.72
2019-03-23T07:04:22.930Z,71.55
2019-03-23T07:06:26.895Z,75.28
2019-03-23T07:08:32.413Z,75.35
2019-03-23T07:10:36.386Z,78.42
2019-03-23T07:12:40.222Z,79.82
2019-03-23T07:14:44.023Z,76.15
2019-03-23T07:16:47.943Z,74.67
2019-03-23T07:18:51.771Z,75.22
2019-03-23T07:20:55.635Z,76.12
2019-03-23T07:22:59.559Z,80.05
2019-03-23T07:25:03.999Z,75.87
2019-03-23T07:27:07.835Z,77.15
2019-03-23T07:29:11.841Z,78.70
2019-03-23T07:31:15.734Z,76.70
2019-03-23T07:33:19.554Z,76.15
2019-03-23T07:35:23.648Z,75.28
2019-03-23T07:37:27.550Z,73.17
2019-03-23T07:39:50.678Z,73.22
2019-03-23T07:41:57.849Z,71.42
2019-03-23T07:44:01.698Z,69.95
2019-03-23T07:46:05.577Z,70.72
2019-03-23T07:48:09.593Z,70.47
2019-03-23T07:50:15.029Z,67.17
2019-03-23T07:52:18.847Z,68.78
2019-03-23T07:54:22.733Z,65.62
2019-03-23T07:56:26.643Z,67.12
2019-03-23T07:58:30.499Z,67.70
2019-03-23T08:00:34.762Z,63.38
2019-03-23T08:02:38.610Z,61.30
2019-03-23T08:04:42.436Z,62.40
2019-03-23T08:06:46.348Z,63.80
2019-03-23T08:08:50.241Z,61.68
2019-03-23T08:10:54.096Z,61.55
2019-03-23T08:12:58.291Z,61.05
2019-03-23T08:15:02.225Z,60.63
2019-03-23T08:17:06.086Z,60.30
2019-03-23T08:19:09.914Z,61.65
2019-03-23T08:21:13.849Z,58.78
2019-03-23T08:23:17.665Z,59.53
2019-03-23T08:25:21.682Z,60.60
2019-03-23T08:27:25.542Z,61.30
2019-03-23T08:29:29.410Z,59.40
2019-03-23T08:31:33.297Z,56.65
2019-03-23T08:33:37.143Z,59.33
2019-03-23T08:35:41.001Z,58.28
2019-03-23T08:37:44.987Z,58.15
2019-03-23T08:39:48.940Z,56.68
2019-03-23T08:41:52.811Z,56.55
2019-03-23T08:43:56.682Z,56.68
2019-03-23T08:46:00.551Z,56.68
2019-03-23T08:48:04.386Z,57.17
2019-03-23T08:50:09.205Z,56.37
2019-03-23T08:52:13.047Z,55.50
2019-03-23T08:54:17.202Z,54.77
2019-03-23T08:56:21.233Z,53.02
2019-03-23T08:58:30.213Z,54.77
2019-03-23T09:00:34.057Z,56.98
2019-03-23T09:02:37.975Z,55.23
2019-03-23T09:04:41.919Z,56.02
2019-03-23T09:06:45.894Z,48.68
2019-03-23T09:08:50.159Z,53.60
2019-03-23T09:10:54.145Z,51.85
2019-03-23T09:12:58.010Z,52.53
2019-03-23T09:15:08.870Z,50.50
2019-03-23T09:17:12.736Z,53.33
2019-03-23T09:19:16.782Z,49.35
2019-03-23T09:21:20.780Z,49.93
2019-03-23T09:23:27.951Z,51.80
2019-03-23T09:25:31.792Z,50.20
2019-03-23T09:27:35.772Z,48.52
2019-03-23T09:29:39.736Z,50.17
2019-03-23T09:31:46.489Z,51.23
2019-03-23T09:33:49.889Z,50.55
2019-03-23T09:35:53.910Z,47.55
2019-03-23T09:37:57.748Z,49.63
2019-03-23T09:40:10.015Z,49.60
2019-03-23T09:42:07.293Z,46.68
2019-03-23T09:44:11.238Z,47.10
2019-03-23T09:46:15.199Z,46.30
2019-03-23T09:48:19.490Z,46.80
2019-03-23T09:50:23.333Z,46.18
2019-03-23T09:52:27.388Z,46.73
2019-03-23T09:54:31.938Z,45.38
2019-03-23T09:56:35.941Z,46.20
2019-03-23T09:58:39.894Z,43.73
2019-03-23T10:00:43.778Z,44.65
2019-03-23T10:02:47.741Z,46.63
2019-03-23T10:04:51.742Z,46.77
2019-03-23T10:06:55.777Z,48.92
2019-03-23T10:08:59.811Z,47.93
2019-03-23T10:11:03.795Z,48.25
2019-03-23T10:13:07.713Z,49.08
2019-03-23T10:15:11.870Z,48.13
2019-03-23T10:17:15.851Z,51.80
2019-03-23T10:19:19.945Z,50.10
2019-03-23T10:21:23.797Z,48.42
2019-03-23T10:23:27.768Z,48.50
2019-03-23T10:25:31.709Z,47.03
2019-03-23T10:27:35.724Z,48.83
2019-03-23T10:29:39.778Z,48.17
2019-03-23T10:31:43.710Z,45.48
2019-03-23T10:33:47.593Z,47.65
2019-03-23T10:35:51.538Z,47.15
2019-03-23T10:37:55.508Z,45.85
2019-03-23T10:39:59.490Z,48.00
2019-03-23T10:42:03.455Z,47.53
2019-03-23T10:44:07.338Z,46.00
2019-03-23T10:46:11.191Z,45.15
2019-03-23T10:48:15.067Z,43.87
2019-03-23T10:50:18.965Z,42.83
2019-03-23T10:52:22.993Z,43.05
2019-03-23T10:54:29.197Z,38.25
2019-03-23T10:56:33.245Z,40.30
2019-03-23T10:58:37.838Z,40.38
2019-03-23T11:00:41.731Z,41.00
2019-03-23T11:02:45.606Z,41.28
2019-03-23T11:04:49.450Z,38.80
2019-03-23T11:06:53.302Z,42.20
2019-03-23T11:08:57.248Z,40.75
2019-03-23T11:11:01.063Z,39.45
2019-03-23T11:13:04.966Z,40.95
2019-03-23T11:15:09.428Z,36.40
2019-03-23T11:17:13.270Z,37.20
2019-03-23T11:19:17.202Z,37.98
2019-03-23T11:21:21.099Z,39.33
2019-03-23T11:23:25.006Z,33.48
2019-03-23T11:25:28.862Z,34.55
2019-03-23T11:27:32.781Z,33.40
2019-03-23T11:29:36.644Z,38.63
2019-03-23T11:31:40.578Z,36.77
2019-03-23T11:33:44.433Z,38.33
2019-03-23T11:35:57.505Z,39.45
2019-03-23T11:37:54.039Z,38.17
2019-03-23T11:39:58.113Z,24.90
2019-03-23T11:42:01.915Z,26.27
2019-03-23T11:44:06.068Z,25.05
2019-03-23T11:46:09.907Z,37.45
2019-03-23T11:48:13.826Z,36.77
2019-03-23T11:50:18.156Z,30.92
2019-03-23T11:52:22.256Z,32.42
2019-03-23T11:54:26.125Z,27.50
2019-03-23T11:56:30.530Z,22.90
2019-03-23T11:58:34.836Z,21.20
2019-03-23T12:00:41.954Z,19.73
2019-03-23T12:02:45.831Z,19.50
2019-03-23T12:04:51.211Z,21.77
2019-03-23T12:06:55.099Z,20.50
2019-03-23T12:08:58.985Z,21.33
2019-03-23T12:11:03.323Z,19.30
2019-03-23T12:13:07.339Z,20.70
2019-03-23T12:15:12.821Z,20.90
2019-03-23T12:17:16.740Z,20.35
2019-03-23T12:19:20.646Z,19.82
2019-03-23T12:21:24.474Z,19.92
2019-03-23T12:23:28.316Z,20.90
2019-03-23T12:25:32.317Z,20.15
2019-03-23T12:27:36.204Z,21.07
2019-03-23T12:29:40.068Z,19.50
2019-03-23T12:31:43.913Z,20.30
2019-03-23T12:33:47.804Z,19.92
2019-03-23T12:35:51.654Z,19.80
2019-03-23T12:37:55.487Z,18.82
2019-03-23T12:39:59.457Z,21.02
2019-03-23T12:42:03.282Z,19.02
2019-03-23T12:44:07.461Z,18.87
2019-03-23T12:46:11.409Z,19.95
2019-03-23T12:48:15.577Z,18.57
2019-03-23T12:50:19.418Z,18.55
2019-03-23T12:52:23.341Z,17.55
2019-03-23T12:54:27.239Z,18.42
2019-03-23T12:56:31.079Z,18.73
2019-03-23T12:58:34.971Z,19.30
2019-03-23T13:00:38.879Z,21.07
2019-03-23T13:02:42.747Z,19.07
2019-03-23T13:04:46.610Z,19.50
2019-03-23T13:06:50.459Z,18.42
2019-03-23T13:08:54.403Z,18.07
2019-03-23T13:10:58.246Z,18.12
2019-03-23T13:13:02.116Z,18.73
2019-03-23T13:15:07.439Z,18.05
2019-03-23T13:17:13.779Z,16.95
2019-03-23T13:19:17.671Z,19.30
2019-03-23T13:21:21.554Z,17.90
2019-03-23T13:23:25.435Z,19.02
2019-03-23T13:25:29.308Z,16.93
2019-03-23T13:27:33.220Z,16.73
2019-03-23T13:29:37.097Z,16.90
2019-03-23T13:31:40.942Z,16.37
2019-03-23T13:33:44.882Z,17.27
2019-03-23T13:35:48.738Z,17.50
2019-03-23T13:37:54.499Z,17.57
2019-03-23T13:39:58.187Z,16.45
2019-03-23T13:42:02.064Z,16.73
2019-03-23T13:44:05.937Z,16.30
2019-03-23T13:46:09.885Z,15.28
2019-03-23T13:48:13.774Z,16.90
2019-03-23T13:50:28.874Z,16.90
2019-03-23T13:52:32.977Z,16.35
2019-03-23T13:54:36.813Z,16.67
2019-03-23T13:56:40.719Z,15.93
2019-03-23T13:58:44.722Z,16.73
2019-03-23T14:00:48.601Z,20.85
2019-03-23T14:02:52.448Z,16.93
2019-03-23T14:04:56.371Z,13.90
2019-03-23T14:07:00.221Z,14.93
2019-03-23T14:09:05.099Z,15.78
2019-03-23T14:11:09.029Z,16.73
2019-03-23T14:13:12.915Z,17.60
2019-03-23T14:15:16.765Z,18.95
2019-03-23T14:17:20.665Z,19.80
2019-03-23T14:19:24.530Z,19.67
2019-03-23T14:21:28.359Z,18.15
2019-03-23T14:23:32.395Z,16.45
2019-03-23T14:25:36.241Z,17.45
2019-03-23T14:27:40.118Z,15.43
2019-03-23T14:29:45.495Z,15.28
2019-03-23T14:31:49.588Z,16.62
2019-03-23T14:33:53.463Z,17.73
2019-03-23T14:35:57.410Z,21.95
2019-03-23T14:38:01.271Z,23.18
2019-03-23T14:40:06.987Z,21.27
2019-03-23T14:42:10.955Z,19.50
2019-03-23T14:44:14.820Z,18.92
2019-03-23T14:46:18.692Z,14.53
2019-03-23T14:48:22.606Z,13.85
2019-03-23T14:50:26.456Z,13.85
2019-03-23T14:52:30.295Z,13.38
2019-03-23T14:54:34.212Z,11.78
2019-03-23T14:56:38.052Z,11.97
2019-03-23T14:58:41.902Z,10.98
2019-03-23T15:00:45.793Z,11.88
2019-03-23T15:02:49.829Z,11.68
2019-03-23T15:04:53.663Z,12.55
2019-03-23T15:06:57.575Z,12.37
2019-03-23T15:09:01.418Z,12.43
2019-03-23T15:11:05.258Z,12.88
2019-03-23T15:13:09.155Z,11.68
2019-03-23T15:15:13.237Z,11.80
2019-03-23T15:17:17.155Z,12.47
2019-03-23T15:19:21.109Z,13.45
2019-03-23T15:21:24.978Z,12.90
2019-03-23T15:23:28.823Z,12.23
2019-03-23T15:25:32.702Z,12.55
2019-03-23T15:27:36.521Z,11.83
2019-03-23T15:29:40.501Z,12.80
2019-03-23T15:31:44.442Z,13.35
2019-03-23T15:33:48.269Z,13.13
2019-03-23T15:35:52.199Z,13.22
2019-03-23T15:37:56.118Z,12.75
2019-03-23T15:40:00.028Z,12.73
2019-03-23T15:42:03.918Z,11.57
2019-03-23T15:44:07.891Z,11.85
2019-03-23T15:46:11.770Z,12.50
2019-03-23T15:48:15.732Z,11.63
2019-03-23T15:50:19.570Z,11.70
2019-03-23T15:52:23.802Z,11.40
2019-03-23T15:54:27.722Z,11.83
2019-03-23T15:56:31.570Z,11.97
2019-03-23T15:58:35.432Z,11.68
2019-03-23T16:00:39.284Z,12.82
2019-03-23T16:02:43.207Z,12.53
2019-03-23T16:04:47.128Z,12.73
2019-03-23T16:06:51.022Z,12.80
2019-03-23T16:08:55.219Z,12.53
2019-03-23T16:10:59.020Z,15.05
2019-03-23T16:13:02.992Z,16.97
2019-03-23T16:15:11.663Z,15.13
2019-03-23T16:17:15.467Z,14.85
2019-03-23T16:19:19.388Z,15.65
2019-03-23T16:21:23.320Z,15.18
2019-03-23T16:23:27.498Z,15.83
2019-03-23T16:25:31.269Z,15.48
2019-03-23T16:27:35.114Z,15.28
2019-03-23T16:29:38.954Z,14.90
2019-03-23T16:31:42.959Z,15.65
2019-03-23T16:33:46.796Z,14.95
2019-03-23T16:35:50.655Z,14.90
2019-03-23T16:37:54.543Z,14.10
2019-03-23T16:39:58.376Z,15.13
2019-03-23T16:42:02.218Z,14.83
2019-03-23T16:44:07.069Z,15.88
2019-03-23T16:46:10.992Z,13.65
2019-03-23T16:48:14.841Z,15.53
2019-03-23T16:50:18.769Z,16.93
2019-03-23T16:52:22.657Z,17.65
2019-03-23T16:54:27.890Z,13.75
2019-03-23T16:56:31.861Z,15.93
2019-03-23T16:58:35.750Z,14.53
2019-03-23T17:00:39.680Z,13.30
2019-03-23T17:02:43.811Z,13.30
2019-03-23T17:04:47.626Z,14.68
2019-03-23T17:06:51.499Z,23.25
2019-03-23T17:08:55.361Z,21.23
2019-03-23T17:10:59.224Z,21.30
2019-03-23T17:13:03.060Z,19.45
2019-03-23T17:15:07.651Z,20.80
2019-03-23T17:17:11.558Z,19.73
2019-03-23T17:19:15.431Z,22.40
2019-03-23T17:21:19.412Z,22.05
2019-03-23T17:23:23.246Z,21.37
2019-03-23T17:25:27.123Z,22.62
2019-03-23T17:27:31.012Z,20.95
2019-03-23T17:29:34.853Z,21.45
2019-03-23T17:31:38.738Z,20.70
2019-03-23T17:33:42.680Z,22.80
2019-03-23T17:35:46.548Z,22.75
2019-03-23T17:37:50.393Z,22.75
2019-03-23T17:39:54.250Z,22.15
2019-03-23T17:41:58.134Z,23.42
2019-03-23T17:44:02.011Z,23.90
2019-03-23T17:46:06.043Z,25.32
2019-03-23T17:48:09.868Z,26.57
2019-03-23T17:50:13.912Z,27.73
2019-03-23T17:52:17.795Z,27.52
2019-03-23T17:54:23.175Z,31.20
2019-03-23T17:56:27.455Z,30.95
2019-03-23T17:58:31.320Z,32.30
2019-03-23T18:00:35.214Z,36.83
2019-03-23T18:02:39.088Z,38.00
2019-03-23T18:04:43.408Z,43.33
2019-03-23T18:06:47.267Z,44.48
2019-03-23T18:08:51.136Z,44.30
2019-03-23T18:10:55.055Z,45.75
2019-03-23T18:12:59.002Z,43.50
2019-03-23T18:15:02.847Z,41.68
2019-03-23T18:17:06.789Z,37.48
2019-03-23T18:19:10.674Z,37.83
2019-03-23T18:21:14.517Z,39.00
2019-03-23T18:23:18.445Z,41.65
2019-03-23T18:25:22.277Z,48.98
2019-03-23T18:27:26.162Z,42.27
2019-03-23T18:29:30.119Z,50.70
2019-03-23T18:31:33.964Z,48.25
2019-03-23T18:33:37.805Z,46.85
2019-03-23T18:35:41.729Z,52.50
2019-03-23T18:37:45.613Z,51.40
2019-03-23T18:39:49.583Z,56.88
2019-03-23T18:41:53.490Z,59.53
2019-03-23T18:43:57.385Z,53.55
2019-03-23T18:46:01.333Z,61.45
2019-03-23T18:48:05.482Z,63.20
2019-03-23T18:50:09.733Z,64.92
2019-03-23T18:52:13.599Z,63.75
2019-03-23T18:54:17.470Z,62.85
2019-03-23T18:56:21.356Z,69.12
2019-03-23T18:58:25.199Z,65.50
2019-03-23T19:00:34.355Z,67.50
2019-03-23T19:02:38.303Z,63.08
2019-03-23T19:04:42.194Z,61.20
2019-03-23T19:06:46.126Z,58.42
2019-03-23T19:08:49.963Z,57.20
2019-03-23T19:10:53.926Z,59.27
2019-03-23T19:12:59.333Z,61.73
2019-03-23T19:15:03.227Z,90.50
2019-03-23T19:17:07.117Z,82.33
2019-03-23T19:19:11.058Z,67.97
2019-03-23T19:21:14.894Z,52.62
2019-03-23T19:23:18.786Z,51.80
2019-03-23T19:25:22.666Z,52.93
2019-03-23T19:27:26.589Z,47.33
2019-03-23T19:29:30.470Z,44.60
2019-03-23T19:31:34.321Z,40.88
2019-03-23T19:33:38.214Z,34.55
2019-03-23T19:35:42.091Z,27.62
2019-03-23T19:37:45.962Z,26.77
2019-03-23T19:39:49.887Z,24.32
2019-03-23T19:41:53.714Z,23.00
2019-03-23T19:43:57.586Z,24.02
2019-03-23T19:46:01.569Z,26.45
2019-03-23T19:48:05.409Z,30.77
2019-03-23T19:50:09.471Z,33.35
2019-03-23T19:52:13.404Z,41.68
2019-03-23T19:54:17.267Z,42.13
2019-03-23T19:56:22.632Z,42.00
2019-03-23T19:58:26.563Z,46.15
2019-03-23T20:00:30.442Z,49.48
2019-03-23T20:02:34.391Z,51.70
2019-03-23T20:04:38.264Z,50.78
2019-03-23T20:06:42.127Z,55.58
2019-03-23T20:08:46.055Z,59.05
2019-03-23T20:10:49.996Z,61.15
2019-03-23T20:12:53.907Z,60.98
2019-03-23T20:14:58.132Z,57.73
2019-03-23T20:17:01.973Z,62.05
2019-03-23T20:19:05.919Z,62.58
2019-03-23T20:21:09.835Z,64.50
2019-03-23T20:23:13.729Z,72.00
2019-03-23T20:25:17.637Z,69.80
2019-03-23T20:27:21.509Z,67.00
2019-03-23T20:29:25.432Z,63.85
2019-03-23T20:31:29.327Z,62.83
2019-03-23T20:33:33.185Z,62.15
2019-03-23T20:35:38.747Z,57.83
2019-03-23T20:37:42.622Z,59.50
2019-03-23T20:39:46.732Z,58.28
2019-03-23T20:41:50.570Z,54.20
2019-03-23T20:43:54.479Z,49.53
2019-03-23T20:45:58.431Z,45.63
2019-03-23T20:48:03.244Z,41.60
2019-03-23T20:50:09.117Z,39.80
2019-03-23T20:52:13.016Z,36.38
2019-03-23T20:54:16.899Z,36.70
2019-03-23T20:56:20.756Z,36.30
2019-03-23T20:58:24.712Z,35.52
2019-03-23T21:00:28.512Z,34.45
2019-03-23T21:02:32.439Z,33.78
2019-03-23T21:04:36.344Z,33.80
2019-03-23T21:06:40.223Z,34.73
2019-03-23T21:08:44.098Z,33.60
2019-03-23T21:10:48.386Z,34.48
2019-03-23T21:12:52.230Z,33.73
2019-03-23T21:14:56.053Z,33.30
2019-03-23T21:17:00.010Z,31.75
2019-03-23T21:19:03.896Z,31.52
2019-03-23T21:21:07.764Z,31.77
2019-03-23T21:23:11.678Z,31.12
2019-03-23T21:25:15.529Z,31.07
2019-03-23T21:27:19.728Z,31.77
2019-03-23T21:29:23.670Z,31.82
2019-03-23T21:31:27.458Z,31.17
2019-03-23T21:33:32.186Z,32.00
2019-03-23T21:35:36.957Z,31.07
2019-03-23T21:37:40.894Z,30.57
2019-03-23T21:39:44.802Z,31.30
2019-03-23T21:41:48.714Z,30.92
2019-03-23T21:43:52.572Z,30.82
2019-03-23T21:45:56.480Z,30.02
2019-03-23T21:48:00.376Z,29.85
2019-03-23T21:50:08.375Z,30.75
2019-03-23T21:52:12.345Z,29.77
2019-03-23T21:54:16.240Z,29.92
2019-03-23T21:56:20.036Z,29.72
2019-03-23T21:58:23.931Z,29.98
2019-03-23T22:00:32.546Z,29.75
2019-03-23T22:02:36.422Z,30.02
2019-03-23T22:04:40.295Z,29.25
2019-03-23T22:06:44.233Z,30.05
2019-03-23T22:08:48.103Z,28.17
2019-03-23T22:10:51.970Z,31.30
2019-03-23T22:12:55.902Z,29.82
2019-03-23T22:14:59.767Z,29.30
2019-03-23T22:17:05.738Z,30.45
2019-03-23T22:19:09.223Z,30.68
2019-03-23T22:21:13.054Z,30.72
2019-03-23T22:23:16.922Z,30.55
2019-03-23T22:25:20.849Z,29.80
2019-03-23T22:27:24.718Z,29.40
2019-03-23T22:29:28.617Z,29.37
2019-03-23T22:31:32.482Z,30.75
2019-03-23T22:33:36.399Z,31.68
2019-03-23T22:35:40.307Z,31.45
2019-03-23T22:37:44.206Z,30.27
2019-03-23T22:39:48.074Z,33.50
2019-03-23T22:41:52.024Z,33.60
2019-03-23T22:43:55.918Z,33.58
2019-03-23T22:45:59.741Z,36.45
2019-03-23T22:48:03.662Z,33.25
2019-03-23T22:50:08.901Z,34.80
2019-03-23T22:52:12.734Z,39.35
2019-03-23T22:54:16.644Z,37.20
2019-03-23T22:56:20.531Z,39.27
2019-03-23T22:58:24.405Z,39.23
2019-03-23T23:00:42.027Z,43.75
2019-03-23T23:02:46.056Z,44.38
2019-03-23T23:04:49.971Z,40.50
2019-03-23T23:06:53.811Z,41.00
2019-03-23T23:08:57.757Z,41.60
2019-03-23T23:11:01.687Z,43.85
2019-03-23T23:13:05.529Z,43.80
2019-03-23T23:15:09.428Z,47.10
2019-03-23T23:17:13.255Z,48.25
2019-03-23T23:19:17.091Z,49.50
2019-03-23T23:21:20.939Z,47.83
2019-03-23T23:23:24.779Z,48.28
2019-03-23T23:25:28.613Z,45.95
2019-03-23T23:27:32.494Z,52.38
2019-03-23T23:29:36.374Z,51.42
2019-03-23T23:31:40.286Z,48.42
2019-03-23T23:33:44.087Z,51.18
2019-03-23T23:35:47.906Z,52.67
2019-03-23T23:37:51.812Z,48.78
2019-03-23T23:39:55.612Z,52.10
2019-03-23T23:41:59.701Z,48.23
2019-03-23T23:44:03.916Z,49.55
2019-03-23T23:46:07.793Z,54.00
2019-03-23T23:48:11.639Z,54.27
2019-03-23T23:50:15.589Z,52.75
2019-03-23T23:52:19.462Z,52.98
2019-03-23T23:54:23.266Z,55.10
2019-03-23T23:56:27.126Z,50.73
2019-03-23T23:58:31.012Z,53.10
